Clermont/Ferrand, France

12:38 PM CET on March 23, 2017 (GMT +0100)
Clermont-Ferrand / Auvergne | | Change Station

Elev 1083 ft 45.78 °N, 3.17 °E | Updated 8 minutes ago

Rain
Rain Mist
45 °F
Feels Like 43 °F
N
4
Wind Variable Wind from NNE

Today
High -- | Low -- °F
--% Chance of Precip.
Yesterday
High -- | Low -- °F
Precip. -- in
Pressure 29.77 in
Visibility -9999.0 miles
Clouds Few 1100 ft
Mostly Cloudy 2200 ft
Overcast 3600 ft
Windchill 43 °F
Dew Point 41 °F
Humidity 87%
Rainfall 0.00 in
Snow Depth Not available.
6:44 AM 7:03 PM
Waning Crescent, 24% visible
METAR LFLC 231130Z AUTO 02003KT 350V090 3100 RA BR FEW011/// BKN022/// OVC036/// ///TCU 07/05 Q1008 TEMPO VRB15G30KT FEW030CB BKN040TCU BECMG 9999 NSW
Pressure 29.77 in
Visibility -9999.0 miles
Clouds Few 1100 ft
Mostly Cloudy 2200 ft
Overcast 3600 ft
Windchill 43 °F
Dew Point 41 °F
Humidity 87%
Rainfall 0.00 in
Snow Depth Not available.
6:44 AM 7:03 PM
Waning Crescent, 24% visible
METAR LFLC 231130Z AUTO 02003KT 350V090 3100 RA BR FEW011/// BKN022/// OVC036/// ///TCU 07/05 Q1008 TEMPO VRB15G30KT FEW030CB BKN040TCU BECMG 9999 NSW

Get Severe Weather Alerts

Thanks for signing up!

Be on the lookout for a verification email in your inbox.

You'll start receiving the daily forecast at 8 AM.

×

10-Day Weather Forecast

×

Almanac

Astronomy

Mar. 23, 2017 Rise Set
Actual Time
Civil Twilight
Nautical Twilight
Astronomical Twilight
Moon
Length of Visible Light
Length of Day
Tomorrow will be .
, % of the Moon is Illuminated

Today's Extremes

Country Highs Country Lows

Community

WunderPhotos

Upload Photos

1,962,540 photos uploaded!

WunderBlog® & News

Nearby

Air Quality

  Air Quality AQ Index Pollutant
Not available.

Snow Depth

Station Depth Elevation

Earthquake Activity

City Distance Mag. Time & Date
Minimum magnitude displayed is 2.5.

Earthquake Activity

City Distance Mag. Time & Date
Minimum magnitude displayed is 2.5.

Coastal Water Temperatures

Place Temperature

Stations

Nearby Weather Stations

Station Location Temp. Windchill Dew Point Humidity Wind Precip. Elev Updated Type